Time;durP1;ratioP1;P1;durP2;ratioP2;P2;SDS_P1;SDS_P2;PMS_P1;PMS_P2;Temp;Humidity;BMP_temperature;BMP_pressure;BME280_temperature;BME280_humidity;BME280_pressure;Samples;Min_cycle;Max_cycle;Signal;HPM_P1;HPM_P2
2021/08/12 00:00:38;;;;;;;5.55;4.03;;;18.30;99.90;;;;;;5076825;28;20025;-89
2021/08/12 00:03:03;;;;;;;6.60;3.90;;;18.30;99.90;;;;;;5076742;28;20107;-89
2021/08/12 00:05:29;;;;;;;6.40;4.40;;;18.40;99.90;;;;;;5077003;28;20028;-89
2021/08/12 00:07:55;;;;;;;11.00;4.47;;;18.40;99.90;;;;;;5094910;28;20467;-89
2021/08/12 00:10:20;;;;;;;7.90;4.20;;;18.20;99.90;;;;;;5076724;28;20400;-89
2021/08/12 00:12:46;;;;;;;9.50;4.43;;;18.30;99.90;;;;;;5076977;28;20036;-88
2021/08/12 00:15:12;;;;;;;6.85;3.92;;;18.30;99.90;;;;;;5076162;28;20024;-89
2021/08/12 00:17:37;;;;;;;8.82;3.70;;;18.30;99.90;;;;;;5076620;28;20032;-89
2021/08/12 00:20:04;;;;;;;9.43;4.10;;;18.40;99.90;;;;;;5076546;28;20036;-89
2021/08/12 00:22:29;;;;;;;5.63;3.85;;;18.40;99.90;;;;;;5094791;28;20020;-89
2021/08/12 00:24:55;;;;;;;8.57;4.53;;;18.30;99.90;;;;;;5076502;28;20115;-89
2021/08/12 00:27:21;;;;;;;5.32;3.83;;;18.30;99.90;;;;;;5077717;28;20024;-89
2021/08/12 00:29:47;;;;;;;6.60;3.97;;;18.40;99.90;;;;;;5079885;28;20036;-89
2021/08/12 00:32:13;;;;;;;9.88;4.03;;;18.40;99.90;;;;;;5080039;28;20118;-89
2021/08/12 00:34:38;;;;;;;7.25;4.05;;;18.40;99.90;;;;;;5080423;28;20024;-90
2021/08/12 00:37:04;;;;;;;5.97;4.10;;;18.40;99.90;;;;;;5081219;28;20430;-89
2021/08/12 00:39:30;;;;;;;8.52;3.97;;;18.30;99.90;;;;;;5079982;28;20032;-89
2021/08/12 00:41:57;;;;;;;7.47;4.25;;;18.30;99.90;;;;;;5084613;28;20050;-89
2021/08/12 00:44:22;;;;;;;8.05;3.80;;;18.20;99.90;;;;;;5104033;28;20139;-89
2021/08/12 00:46:48;;;;;;;5.88;3.90;;;18.20;99.90;;;;;;5081999;28;20107;-90
2021/08/12 00:49:14;;;;;;;10.45;4.05;;;18.00;99.90;;;;;;5081332;28;20020;-89
2021/08/12 00:51:40;;;;;;;8.38;3.78;;;17.90;99.90;;;;;;5080396;28;20055;-89
2021/08/12 00:54:06;;;;;;;8.52;3.83;;;18.10;99.90;;;;;;5080105;28;20035;-89
2021/08/12 00:56:32;;;;;;;9.55;4.40;;;18.10;99.90;;;;;;5079939;28;20024;-89
2021/08/12 00:58:57;;;;;;;8.05;4.45;;;18.10;99.90;;;;;;5080080;28;20031;-88
2021/08/12 01:01:24;;;;;;;8.07;4.28;;;18.20;99.90;;;;;;5079774;28;20502;-89
2021/08/12 01:03:50;;;;;;;8.90;4.20;;;18.00;99.90;;;;;;5097392;28;20597;-89
2021/08/12 01:06:22;;;;;;;7.78;4.32;;;18.10;99.90;;;;;;5079751;28;20053;-90
2021/08/12 01:09:09;;;;;;;5.97;4.07;;;18.00;99.90;;;;;;5080085;28;20024;-89
2021/08/12 01:11:45;;;;;;;5.15;3.90;;;18.00;99.90;;;;;;5079671;28;20024;-89
2021/08/12 01:14:38;;;;;;;6.25;3.83;;;18.20;99.90;;;;;;5079450;28;20119;-89
2021/08/12 01:17:07;;;;;;;4.53;3.72;;;18.10;99.90;;;;;;5079146;28;20067;-89
2021/08/12 01:19:47;;;;;;;7.88;4.07;;;18.10;99.90;;;;;;5079074;28;20020;-90
2021/08/12 01:22:17;;;;;;;5.72;3.78;;;18.10;99.90;;;;;;5078879;28;20208;-89
2021/08/12 01:24:48;;;;;;;6.35;4.00;;;18.10;99.90;;;;;;5080015;28;20215;-89
2021/08/12 01:27:16;;;;;;;8.68;3.83;;;18.00;99.90;;;;;;5097569;28;20028;-90
2021/08/12 01:30:05;;;;;;;6.63;3.92;;;17.90;99.90;;;;;;5079421;28;20110;-89
2021/08/12 01:32:47;;;;;;;9.43;4.38;;;17.70;99.90;;;;;;5079085;28;20024;-90
2021/08/12 01:35:16;;;;;;;12.10;4.38;;;17.80;99.90;;;;;;5079523;28;20024;-89
2021/08/12 01:37:57;;;;;;;6.22;3.92;;;17.90;99.90;;;;;;5079399;28;20492;-89
2021/08/12 01:40:27;;;;;;;5.72;4.22;;;17.80;99.90;;;;;;5079104;28;20480;-89
2021/08/12 01:42:55;;;;;;;5.47;4.05;;;17.90;99.90;;;;;;5079191;28;20115;-90
2021/08/12 01:45:21;;;;;;;6.47;4.22;;;17.80;99.90;;;;;;5078777;28;20071;-90
2021/08/12 01:47:48;;;;;;;7.32;4.32;;;17.80;99.90;;;;;;5078849;28;20020;-89
2021/08/12 01:50:16;;;;;;;11.27;4.18;;;17.80;99.90;;;;;;5078801;28;20039;-89
2021/08/12 01:52:46;;;;;;;9.30;4.30;;;18.00;99.90;;;;;;5056412;28;20036;-89
2021/08/12 01:55:12;;;;;;;6.78;4.43;;;18.00;99.90;;;;;;5055602;28;20021;-89
2021/08/12 01:57:40;;;;;;;7.82;4.18;;;18.00;99.90;;;;;;5054996;28;20111;-89
2021/08/12 02:00:09;;;;;;;7.35;3.97;;;17.90;99.90;;;;;;5055486;28;20025;-90
2021/08/12 02:02:35;;;;;;;10.80;4.38;;;17.80;99.90;;;;;;5039192;28;20035;-89
2021/08/12 02:05:03;;;;;;;5.70;3.50;;;17.80;99.90;;;;;;5055102;28;20025;-89
2021/08/12 02:07:29;;;;;;;6.90;4.32;;;17.80;99.90;;;;;;5055673;28;20451;-89
2021/08/12 02:09:56;;;;;;;8.13;3.85;;;17.80;99.90;;;;;;5055362;28;20052;-89
2021/08/12 02:12:21;;;;;;;8.23;4.50;;;17.80;99.90;;;;;;5055115;28;20112;-89
2021/08/12 02:14:47;;;;;;;5.90;4.28;;;17.80;99.90;;;;;;5055964;28;20495;-89
2021/08/12 02:17:13;;;;;;;4.95;3.70;;;17.90;99.90;;;;;;5055215;28;20032;-89
2021/08/12 02:19:40;;;;;;;8.40;4.30;;;17.90;99.90;;;;;;5054841;28;20025;-89
2021/08/12 02:22:16;;;;;;;7.32;4.32;;;17.50;99.90;;;;;;5054805;28;20028;-89
2021/08/12 02:25:04;;;;;;;7.35;4.70;;;17.60;99.90;;;;;;5055049;28;20021;-89
2021/08/12 02:27:32;;;;;;;5.65;3.95;;;17.60;99.90;;;;;;5056086;28;20040;-89
2021/08/12 02:29:58;;;;;;;7.25;4.28;;;17.60;99.90;;;;;;5054620;28;20366;-89
2021/08/12 02:32:32;;;;;;;5.88;4.22;;;17.50;99.90;;;;;;5055188;28;20024;-89
2021/08/12 02:34:59;;;;;;;10.00;4.43;;;17.50;99.90;;;;;;5054762;28;20067;-89
2021/08/12 02:37:26;;;;;;;6.05;4.40;;;17.50;99.90;;;;;;5054825;28;20116;-89
2021/08/12 02:39:53;;;;;;;7.75;4.32;;;17.50;99.90;;;;;;5054836;28;20029;-89
2021/08/12 02:42:20;;;;;;;12.05;4.35;;;17.50;99.90;;;;;;5053913;28;20021;-89
2021/08/12 02:44:47;;;;;;;9.10;4.47;;;17.40;99.90;;;;;;5054558;28;20025;-89
2021/08/12 02:47:15;;;;;;;7.65;4.43;;;17.30;99.90;;;;;;5054923;28;20029;-89
2021/08/12 02:49:46;;;;;;;8.18;4.47;;;17.30;99.90;;;;;;5055429;28;20071;-89
2021/08/12 02:52:14;;;;;;;6.18;4.32;;;17.20;99.90;;;;;;5054150;28;20139;-89
2021/08/12 02:54:42;;;;;;;5.70;3.85;;;17.30;99.90;;;;;;5061829;28;20068;-89
2021/08/12 02:57:09;;;;;;;4.60;3.70;;;17.20;99.90;;;;;;5059271;28;20025;-89
2021/08/12 02:59:35;;;;;;;6.10;4.20;;;17.30;99.90;;;;;;5055597;28;20036;-89
2021/08/12 03:02:02;;;;;;;6.05;4.30;;;17.40;99.90;;;;;;5053913;28;20101;-89
2021/08/12 03:04:28;;;;;;;7.03;4.00;;;17.50;99.90;;;;;;5055890;28;20021;-89
2021/08/12 03:06:57;;;;;;;5.65;3.95;;;17.50;99.90;;;;;;5053827;28;20511;-88
2021/08/12 03:09:25;;;;;;;5.97;4.10;;;17.50;99.90;;;;;;5053864;28;20050;-89
2021/08/12 03:11:54;;;;;;;9.82;3.80;;;17.50;99.90;;;;;;5055730;28;20029;-89
2021/08/12 03:14:20;;;;;;;5.13;3.85;;;17.60;99.90;;;;;;5054003;28;20056;-89
2021/08/12 03:16:46;;;;;;;5.90;4.07;;;17.60;99.90;;;;;;5053974;28;20485;-89
2021/08/12 03:19:12;;;;;;;9.57;4.18;;;17.40;99.90;;;;;;5054831;28;20051;-89
2021/08/12 03:21:57;;;;;;;6.25;3.78;;;17.40;99.90;;;;;;5055049;28;20473;-90
2021/08/12 03:24:22;;;;;;;6.80;4.35;;;17.60;99.90;;;;;;5053407;28;20021;-89
2021/08/12 03:26:53;;;;;;;5.93;4.20;;;17.50;99.90;;;;;;5053963;28;20472;-89
2021/08/12 03:29:20;;;;;;;9.10;3.90;;;17.40;99.90;;;;;;5054485;28;20067;-89
2021/08/12 03:31:45;;;;;;;8.07;4.10;;;17.40;99.90;;;;;;5055250;28;20033;-89
2021/08/12 03:34:11;;;;;;;4.68;4.10;;;17.30;99.90;;;;;;5053687;28;20071;-89
2021/08/12 03:36:36;;;;;;;7.18;4.07;;;17.40;99.90;;;;;;5053897;28;20420;-90
2021/08/12 03:39:02;;;;;;;7.07;3.75;;;17.40;99.90;;;;;;5053593;28;20024;-90
2021/08/12 03:41:28;;;;;;;6.30;3.78;;;17.30;99.90;;;;;;5052995;28;20036;-89
2021/08/12 03:43:53;;;;;;;8.57;4.30;;;17.20;99.90;;;;;;5053617;28;20029;-89
2021/08/12 03:46:19;;;;;;;7.22;4.40;;;17.30;99.90;;;;;;5053594;28;20017;-89
2021/08/12 03:48:45;;;;;;;8.77;4.47;;;17.40;99.90;;;;;;5055002;28;20384;-88
2021/08/12 03:51:10;;;;;;;6.63;3.92;;;17.40;99.90;;;;;;5053596;28;20049;-90
2021/08/12 03:53:36;;;;;;;6.10;3.85;;;17.10;99.90;;;;;;5055049;28;20037;-90
2021/08/12 03:56:02;;;;;;;8.60;4.18;;;17.00;99.90;;;;;;5053561;28;20057;-89
2021/08/12 03:58:28;;;;;;;6.85;4.20;;;16.90;99.90;;;;;;5053170;28;20029;-89
2021/08/12 04:00:57;;;;;;;6.55;4.18;;;16.80;99.90;;;;;;5053626;28;20036;-89
2021/08/12 04:03:23;;;;;;;7.38;4.53;;;16.90;99.90;;;;;;5056492;28;20032;-89
2021/08/12 04:05:49;;;;;;;9.65;4.35;;;17.00;99.90;;;;;;5058928;28;20431;-89
2021/08/12 04:08:14;;;;;;;8.57;4.18;;;17.00;99.90;;;;;;5057605;28;20017;-89
2021/08/12 04:10:40;;;;;;;8.20;4.38;;;16.90;99.90;;;;;;5058896;28;20032;-89
2021/08/12 04:13:06;;;;;;;9.95;3.75;;;17.00;99.90;;;;;;5057631;28;20485;-89
2021/08/12 04:15:31;;;;;;;13.38;4.40;;;17.00;99.90;;;;;;5058562;28;20032;-89
2021/08/12 04:17:57;;;;;;;10.27;3.80;;;16.80;99.90;;;;;;5057555;28;20558;-89
2021/08/12 04:20:23;;;;;;;11.65;4.35;;;16.80;99.90;;;;;;5057232;28;20060;-89
2021/08/12 04:22:48;;;;;;;6.85;4.43;;;16.80;99.90;;;;;;5057445;28;20028;-89
2021/08/12 04:25:14;;;;;;;7.03;4.18;;;16.80;99.90;;;;;;5057138;28;20025;-89
2021/08/12 04:27:40;;;;;;;6.60;4.25;;;16.90;99.90;;;;;;5057122;28;20020;-89
2021/08/12 04:30:07;;;;;;;8.95;3.58;;;16.80;99.90;;;;;;5057000;28;20021;-88
2021/08/12 04:32:35;;;;;;;7.63;4.10;;;16.90;99.90;;;;;;5056565;28;20028;-89
2021/08/12 04:35:01;;;;;;;7.95;3.90;;;16.90;99.90;;;;;;5056919;28;20524;-89
2021/08/12 04:37:42;;;;;;;8.15;4.38;;;17.00;99.90;;;;;;5057483;28;20389;-89
2021/08/12 04:40:09;;;;;;;6.22;4.22;;;17.00;99.90;;;;;;5056830;28;20029;-89
2021/08/12 04:42:35;;;;;;;5.68;4.07;;;16.90;99.90;;;;;;5056917;28;20389;-89
2021/08/12 04:45:01;;;;;;;8.35;4.18;;;17.00;99.90;;;;;;5057916;28;20123;-89
2021/08/12 04:47:29;;;;;;;4.82;3.95;;;17.30;99.90;;;;;;5057969;28;20382;-88
2021/08/12 04:49:56;;;;;;;6.15;4.50;;;17.30;99.90;;;;;;5056697;28;20542;-89
2021/08/12 04:52:22;;;;;;;5.32;4.03;;;17.40;99.90;;;;;;5055857;28;20520;-89
2021/08/12 04:54:48;;;;;;;5.60;3.90;;;17.60;99.90;;;;;;5056272;28;20108;-88
2021/08/12 04:57:13;;;;;;;9.75;4.05;;;17.90;99.90;;;;;;5057666;28;20033;-89
2021/08/12 04:59:39;;;;;;;5.50;4.00;;;18.00;99.90;;;;;;5057127;28;20025;-89
2021/08/12 05:02:05;;;;;;;11.02;4.40;;;17.80;99.90;;;;;;5057161;28;20028;-89
2021/08/12 05:04:30;;;;;;;11.00;4.57;;;17.90;99.90;;;;;;5056543;28;20021;-89
2021/08/12 05:06:56;;;;;;;13.10;4.45;;;17.50;99.90;;;;;;5065803;28;20028;-89
2021/08/12 05:09:22;;;;;;;5.35;4.13;;;17.50;99.90;;;;;;5066123;28;20025;-89
2021/08/12 05:11:47;;;;;;;7.65;4.55;;;17.50;99.90;;;;;;5060688;28;20381;-89
2021/08/12 05:14:13;;;;;;;8.85;4.50;;;17.40;99.90;;;;;;5056322;28;20029;-89
2021/08/12 05:16:39;;;;;;;7.53;4.07;;;17.40;99.90;;;;;;5054885;28;20025;-89
2021/08/12 05:19:04;;;;;;;6.30;4.22;;;17.40;99.90;;;;;;5054546;28;20477;-89
2021/08/12 05:21:30;;;;;;;7.45;4.70;;;17.50;99.90;;;;;;5054585;28;20389;-89
2021/08/12 05:23:56;;;;;;;5.20;3.80;;;17.40;99.90;;;;;;5054562;28;20044;-89
2021/08/12 05:26:22;;;;;;;9.18;4.40;;;17.50;99.90;;;;;;5054492;28;20025;-89
2021/08/12 05:28:47;;;;;;;7.93;4.20;;;17.60;99.90;;;;;;5054358;28;20028;-89
2021/08/12 05:31:13;;;;;;;9.65;4.05;;;17.60;99.90;;;;;;5054493;28;20033;-89
2021/08/12 05:33:39;;;;;;;5.22;3.88;;;17.50;99.90;;;;;;5055600;28;20021;-89
2021/08/12 05:36:05;;;;;;;5.95;4.43;;;17.40;99.90;;;;;;5055802;28;20025;-89
2021/08/12 05:38:31;;;;;;;7.43;4.07;;;17.50;99.90;;;;;;5054342;28;20538;-89
2021/08/12 05:40:57;;;;;;;6.07;4.50;;;17.70;99.90;;;;;;5055364;28;20021;-89
2021/08/12 05:43:26;;;;;;;5.22;4.05;;;17.80;99.90;;;;;;5054145;28;20032;-89
2021/08/12 05:45:53;;;;;;;6.80;4.60;;;18.00;99.90;;;;;;5054236;28;20075;-89
2021/08/12 05:48:20;;;;;;;8.57;4.10;;;18.00;99.90;;;;;;5054042;28;20499;-89
2021/08/12 05:50:46;;;;;;;7.40;4.00;;;18.10;99.90;;;;;;5061753;28;20038;-89
2021/08/12 05:53:14;;;;;;;5.72;3.90;;;18.10;99.90;;;;;;5095680;28;20016;-89
2021/08/12 05:55:40;;;;;;;5.57;4.70;;;18.00;99.90;;;;;;5077799;28;20067;-89
2021/08/12 05:58:06;;;;;;;6.57;4.07;;;18.10;99.90;;;;;;5077336;28;20436;-89
2021/08/12 06:00:31;;;;;;;7.85;4.32;;;18.20;99.90;;;;;;5077090;28;20097;-89
2021/08/12 06:03:05;;;;;;;5.43;4.28;;;18.30;99.90;;;;;;5095267;28;20023;-89
2021/08/12 06:05:31;;;;;;;7.22;4.15;;;18.30;99.90;;;;;;5077067;28;20062;-89
2021/08/12 06:07:57;;;;;;;12.00;4.70;;;18.30;99.90;;;;;;5077080;28;20048;-89
2021/08/12 06:10:22;;;;;;;8.10;4.05;;;18.30;99.90;;;;;;5077056;28;20024;-89
2021/08/12 06:12:48;;;;;;;5.75;4.32;;;18.20;99.90;;;;;;5077250;28;20514;-89
2021/08/12 06:15:14;;;;;;;8.23;4.10;;;18.30;99.90;;;;;;5095138;28;20521;-89
2021/08/12 06:17:39;;;;;;;7.75;4.30;;;18.30;99.90;;;;;;5094945;28;20421;-89
2021/08/12 06:20:06;;;;;;;9.50;4.53;;;18.30;99.90;;;;;;5076651;28;20024;-89
2021/08/12 06:22:31;;;;;;;8.15;4.70;;;18.30;99.90;;;;;;5076824;28;20031;-89
2021/08/12 06:24:57;;;;;;;9.73;4.20;;;18.30;99.90;;;;;;5076017;28;20028;-89
2021/08/12 06:27:23;;;;;;;12.07;4.20;;;18.20;99.90;;;;;;5094720;28;20024;-89
2021/08/12 06:29:48;;;;;;;6.10;4.10;;;18.30;99.90;;;;;;5076507;28;20021;-89
2021/08/12 06:32:14;;;;;;;10.65;4.20;;;18.60;99.90;;;;;;5094612;28;20021;-89
2021/08/12 06:34:40;;;;;;;8.18;4.43;;;18.60;99.90;;;;;;5076271;28;20124;-89
2021/08/12 06:37:05;;;;;;;8.85;4.43;;;18.70;99.90;;;;;;5076298;28;20028;-89
2021/08/12 06:39:31;;;;;;;10.65;4.18;;;18.80;99.90;;;;;;5076437;28;20028;-89
2021/08/12 06:41:57;;;;;;;9.63;4.40;;;18.80;99.90;;;;;;5076301;28;20061;-88
2021/08/12 06:44:22;;;;;;;13.00;4.57;;;19.00;99.90;;;;;;5076123;28;20073;-89
2021/08/12 06:46:48;;;;;;;8.02;4.47;;;19.10;99.90;;;;;;5076340;28;20053;-89
2021/08/12 06:49:14;;;;;;;8.45;3.95;;;19.20;99.90;;;;;;5076155;28;20023;-88
2021/08/12 06:51:39;;;;;;;6.15;4.07;;;19.40;99.90;;;;;;5075850;28;20044;-89
2021/08/12 06:54:05;;;;;;;6.95;4.20;;;19.60;99.90;;;;;;5076090;28;20032;-89
2021/08/12 06:56:31;;;;;;;8.40;4.28;;;19.70;99.90;;;;;;5075948;28;20028;-89
2021/08/12 06:58:57;;;;;;;9.63;4.38;;;19.90;99.90;;;;;;5094102;28;20507;-89
2021/08/12 07:01:22;;;;;;;10.23;4.32;;;20.00;99.90;;;;;;5075790;28;20062;-89
2021/08/12 07:03:48;;;;;;;11.63;4.28;;;20.10;99.90;;;;;;5076449;28;20024;-88
2021/08/12 07:06:14;;;;;;;8.07;4.07;;;20.30;99.90;;;;;;5075739;28;20055;-89
2021/08/12 07:08:40;;;;;;;8.35;4.43;;;20.40;99.90;;;;;;5075738;28;20112;-89
2021/08/12 07:11:06;;;;;;;6.95;4.07;;;20.60;99.90;;;;;;5076537;28;20593;-89
2021/08/12 07:13:32;;;;;;;16.55;5.18;;;20.50;99.90;;;;;;5075859;28;20111;-88
2021/08/12 07:15:59;;;;;;;9.48;4.93;;;20.50;99.90;;;;;;5078965;28;20031;-89
2021/08/12 07:18:25;;;;;;;8.15;4.43;;;20.50;99.90;;;;;;5078063;28;20115;-89
2021/08/12 07:20:51;;;;;;;11.77;4.65;;;20.40;99.90;;;;;;5075855;28;20170;-89
2021/08/12 07:23:16;;;;;;;10.63;4.75;;;20.50;99.90;;;;;;5075744;28;20050;-89
2021/08/12 07:25:42;;;;;;;9.48;4.50;;;20.50;99.90;;;;;;5075578;28;20024;-89
2021/08/12 07:28:11;;;;;;;7.72;4.25;;;20.60;99.90;;;;;;5075908;28;20479;-89
2021/08/12 07:30:37;;;;;;;10.68;4.47;;;20.70;99.90;;;;;;5075543;28;20038;-89
2021/08/12 07:33:02;;;;;;;10.75;4.88;;;20.90;99.90;;;;;;5075494;28;20119;-89
2021/08/12 07:35:28;;;;;;;5.82;4.03;;;21.10;99.90;;;;;;5093659;28;20031;-89
2021/08/12 07:37:54;;;;;;;10.60;4.18;;;21.10;99.90;;;;;;5093338;28;20373;-89
2021/08/12 07:40:20;;;;;;;8.73;5.10;;;21.20;99.90;;;;;;5075411;28;20035;-89
2021/08/12 07:42:45;;;;;;;8.23;4.78;;;21.40;99.90;;;;;;5075428;28;20016;-89
2021/08/12 07:45:11;;;;;;;8.45;5.15;;;21.50;99.90;;;;;;5075669;28;20024;-89
2021/08/12 07:47:37;;;;;;;9.18;5.10;;;21.70;99.90;;;;;;5075387;28;20024;-89
2021/08/12 07:50:09;;;;;;;10.50;4.72;;;21.80;99.90;;;;;;5075245;28;20016;-89
2021/08/12 07:52:38;;;;;;;10.23;4.75;;;21.90;99.90;;;;;;5093400;28;20100;-89
2021/08/12 07:55:04;;;;;;;7.55;4.50;;;22.00;99.90;;;;;;5075305;28;20123;-89
2021/08/12 07:57:30;;;;;;;6.95;5.00;;;22.30;99.90;;;;;;5075435;28;20020;-90
2021/08/12 07:59:56;;;;;;;6.95;4.20;;;22.40;99.90;;;;;;5075299;28;20035;-89
2021/08/12 08:02:21;;;;;;;5.82;3.90;;;22.40;99.90;;;;;;5093529;28;20062;-90
2021/08/12 08:04:47;;;;;;;10.85;4.22;;;22.50;99.90;;;;;;5075425;28;20024;-89
2021/08/12 08:07:13;;;;;;;7.65;4.25;;;22.60;99.90;;;;;;5093568;28;20469;-89
2021/08/12 08:09:38;;;;;;;10.20;4.47;;;22.90;99.90;;;;;;5093320;28;20021;-89
2021/08/12 08:12:04;;;;;;;6.30;3.78;;;22.90;99.90;;;;;;5075273;28;20438;-88
2021/08/12 08:14:30;;;;;;;7.50;3.72;;;22.90;99.90;;;;;;5075178;28;20081;-89
2021/08/12 08:16:56;;;;;;;9.50;4.20;;;23.00;99.90;;;;;;5058383;28;20531;-89
2021/08/12 08:19:21;;;;;;;6.78;3.63;;;23.10;99.90;;;;;;5075154;28;20383;-89
2021/08/12 08:21:47;;;;;;;8.45;3.65;;;23.30;99.90;;;;;;5074975;28;20156;-90
2021/08/12 08:24:13;;;;;;;6.13;4.00;;;23.40;99.90;;;;;;5075231;28;20058;-89
2021/08/12 08:26:38;;;;;;;8.23;4.00;;;23.40;99.90;;;;;;5075418;28;20110;-89
2021/08/12 08:29:04;;;;;;;8.43;4.13;;;23.50;99.90;;;;;;5093604;28;20070;-88
2021/08/12 08:31:30;;;;;;;4.70;3.58;;;23.90;99.90;;;;;;5075094;28;20024;-89
2021/08/12 08:33:57;;;;;;;6.53;3.75;;;24.00;99.90;;;;;;5075125;28;20032;-88
2021/08/12 08:36:23;;;;;;;6.88;4.20;;;24.10;99.90;;;;;;5074841;28;20361;-88
2021/08/12 08:38:48;;;;;;;6.25;3.67;;;24.00;99.90;;;;;;5074918;28;20032;-87
2021/08/12 08:41:14;;;;;;;6.22;3.75;;;24.10;99.90;;;;;;5092974;28;20028;-88
2021/08/12 08:43:44;;;;;;;6.47;3.85;;;24.20;99.90;;;;;;5075478;28;20047;-88
2021/08/12 08:46:10;;;;;;;7.65;3.90;;;24.40;99.90;;;;;;5074979;28;20494;-89
2021/08/12 08:48:40;;;;;;;6.78;3.95;;;24.50;99.90;;;;;;5076090;28;20024;-88
2021/08/12 08:51:08;;;;;;;10.02;4.47;;;24.50;99.90;;;;;;5078295;28;20055;-88
2021/08/12 08:53:38;;;;;;;13.20;3.80;;;24.50;99.90;;;;;;5078656;28;20032;-89
2021/08/12 08:56:04;;;;;;;12.65;4.18;;;24.70;99.90;;;;;;5078360;28;20027;-88
2021/08/12 08:58:30;;;;;;;8.90;3.72;;;24.70;99.90;;;;;;5096482;28;20032;-88
2021/08/12 09:00:56;;;;;;;6.95;3.80;;;24.80;99.90;;;;;;5078484;28;20443;-88
2021/08/12 09:03:22;;;;;;;6.45;3.75;;;24.90;99.90;;;;;;5078317;28;20471;-88
2021/08/12 09:05:48;;;;;;;5.90;3.60;;;25.10;99.90;;;;;;5078263;28;20016;-87
2021/08/12 09:08:14;;;;;;;8.90;4.65;;;25.40;99.90;;;;;;5097226;28;20046;-88
2021/08/12 09:10:39;;;;;;;7.78;4.10;;;25.40;99.90;;;;;;5087656;28;20028;-87
2021/08/12 09:13:07;;;;;;;13.30;3.83;;;25.50;99.90;;;;;;5082037;28;20062;-88
2021/08/12 09:15:44;;;;;;;8.77;4.10;;;25.70;99.90;;;;;;5078816;28;20065;-88
2021/08/12 09:18:28;;;;;;;6.25;3.42;;;26.00;99.90;;;;;;5078508;28;20032;-88
2021/08/12 09:20:57;;;;;;;8.90;3.65;;;26.10;99.90;;;;;;5078353;28;20128;-88
2021/08/12 09:23:29;;;;;;;11.32;4.03;;;26.00;99.90;;;;;;5078109;28;20082;-87
2021/08/12 09:25:56;;;;;;;7.43;4.07;;;25.80;99.90;;;;;;5096576;28;20020;-88
2021/08/12 09:28:24;;;;;;;7.70;3.78;;;26.00;99.90;;;;;;5078215;28;20058;-88
2021/08/12 09:31:00;;;;;;;7.82;3.60;;;26.00;99.90;;;;;;5078098;28;20024;-88
2021/08/12 09:33:32;;;;;;;11.82;4.00;;;26.10;99.90;;;;;;5078180;28;20020;-87
2021/08/12 09:35:58;;;;;;;4.85;3.80;;;26.40;99.90;;;;;;5077912;28;20035;-87
2021/08/12 09:38:25;;;;;;;7.68;3.85;;;26.50;99.90;;;;;;5078112;28;20081;-87
2021/08/12 09:40:53;;;;;;;7.90;3.80;;;26.90;99.90;;;;;;5078021;28;20059;-87
2021/08/12 09:43:19;;;;;;;6.53;3.42;;;27.10;99.90;;;;;;5096167;28;20024;-88
2021/08/12 09:45:44;;;;;;;7.38;3.75;;;27.10;99.90;;;;;;5095795;28;20463;-88
2021/08/12 09:48:19;;;;;;;12.23;3.92;;;27.00;99.90;;;;;;5096274;28;20020;-88
2021/08/12 09:50:58;;;;;;;;;;;27.00;99.90;;;;;;5077741;28;20052;-88
2021/08/12 09:53:24;;;;;;;6.60;3.50;;;26.90;99.90;;;;;;5077625;28;20385;-88
2021/08/12 09:55:51;;;;;;;6.57;3.60;;;27.00;99.90;;;;;;5077321;28;20047;-87
2021/08/12 09:58:18;;;;;;;10.88;3.88;;;27.20;99.90;;;;;;5077362;28;20027;-87
2021/08/12 10:00:49;;;;;;;7.25;3.40;;;27.40;99.90;;;;;;5095868;28;20024;-88
2021/08/12 10:03:31;;;;;;;5.55;3.92;;;27.20;99.90;;;;;;5095361;28;20027;-87
2021/08/12 10:06:02;;;;;;;7.60;4.47;;;27.40;99.90;;;;;;5095393;28;20030;-88
2021/08/12 10:08:32;;;;;;;6.47;3.97;;;27.70;99.90;;;;;;5077065;28;20028;-88
2021/08/12 10:11:22;;;;;;;5.60;3.78;;;27.70;99.90;;;;;;5077221;28;20069;-89
2021/08/12 10:13:49;;;;;;;9.63;3.53;;;27.80;99.90;;;;;;5077032;28;20020;-88
2021/08/12 10:16:16;;;;;;;4.53;3.40;;;27.80;99.90;;;;;;5077226;28;20081;-88
2021/08/12 10:18:44;;;;;;;12.07;3.92;;;27.80;99.90;;;;;;5077177;28;20027;-87
2021/08/12 10:21:13;;;;;;;8.18;4.20;;;27.60;99.90;;;;;;5076722;28;20020;-87
2021/08/12 10:23:40;;;;;;;12.77;4.70;;;27.90;99.90;;;;;;5076510;28;20111;-87
2021/08/12 10:26:06;;;;;;;5.75;3.78;;;28.20;99.90;;;;;;5076630;28;20024;-87
2021/08/12 10:28:38;;;;;;;8.00;4.10;;;28.70;99.90;;;;;;5076729;28;20028;-87
2021/08/12 10:31:05;;;;;;;6.65;3.85;;;29.00;99.90;;;;;;5094992;28;20083;-87
2021/08/12 10:33:35;;;;;;;8.00;3.70;;;29.30;99.90;;;;;;5094853;28;20077;-87
2021/08/12 10:36:01;;;;;;;7.25;4.13;;;28.80;99.90;;;;;;5076682;28;20369;-87
2021/08/12 10:38:27;;;;;;;6.93;3.78;;;29.20;99.90;;;;;;5094637;28;20499;-88
2021/08/12 10:40:53;;;;;;;6.47;4.13;;;29.50;99.90;;;;;;5076263;28;20031;-87
2021/08/12 10:43:27;;;;;;;8.60;3.45;;;29.40;99.90;;;;;;5076344;28;20032;-88
2021/08/12 10:45:59;;;;;;;;;;;29.50;99.90;;;;;;5094733;28;20017;-88
2021/08/12 10:48:28;;;;;;;7.47;4.30;;;29.50;99.90;;;;;;5094336;28;19903;-88
2021/08/12 10:51:12;;;;;;;9.70;4.00;;;29.50;99.90;;;;;;5075919;28;20043;-88
2021/08/12 10:53:43;;;;;;;5.57;4.05;;;29.10;99.90;;;;;;5076029;28;20392;-88
2021/08/12 10:56:16;;;;;;;9.00;4.35;;;29.00;99.90;;;;;;5094574;28;20095;-92
2021/08/12 10:58:49;;;;;;;7.93;4.10;;;28.90;99.90;;;;;;5098667;28;20024;-90
2021/08/12 11:01:31;;;;;;;8.98;4.45;;;28.90;99.90;;;;;;5080635;28;20031;-90
2021/08/12 11:04:03;;;;;;;6.85;4.53;;;29.80;99.90;;;;;;5080151;28;20395;-88
2021/08/12 11:06:55;;;;;;;10.43;4.25;;;29.00;99.90;;;;;;5076337;28;20031;-88
2021/08/12 11:09:20;;;;;;;5.10;3.67;;;28.60;99.90;;;;;;5071137;28;20032;-88
2021/08/12 11:11:51;;;;;;;7.60;4.13;;;29.00;99.90;;;;;;5075432;28;20372;-88
2021/08/12 11:14:43;;;;;;;7.60;4.13;;;29.40;99.90;;;;;;5075740;28;20028;-88
2021/08/12 11:17:09;;;;;;;13.75;4.68;;;29.60;99.90;;;;;;5076840;28;20607;-88
2021/08/12 11:19:35;;;;;;;7.30;4.18;;;29.50;99.90;;;;;;5077362;28;20120;-88
2021/08/12 11:22:02;;;;;;;5.05;3.88;;;29.50;99.90;;;;;;5077395;28;20020;-88
2021/08/12 11:24:27;;;;;;;11.30;4.45;;;30.10;99.90;;;;;;5078134;28;20470;-88
2021/08/12 11:26:57;;;;;;;6.00;3.97;;;30.80;99.90;;;;;;5077131;28;20021;-88
2021/08/12 11:29:29;;;;;;;7.93;4.13;;;31.30;99.90;;;;;;5095311;28;20121;-88
2021/08/12 11:32:05;;;;;;;8.00;3.80;;;31.70;98.00;;;;;;5077342;28;20501;-88
2021/08/12 11:34:52;;;;;;;10.00;4.15;;;31.30;98.10;;;;;;5095494;28;20031;-88
2021/08/12 11:37:25;;;;;;;4.75;4.03;;;30.70;99.10;;;;;;5095087;28;20045;-88
2021/08/12 11:39:54;;;;;;;12.00;4.45;;;30.50;99.20;;;;;;5077276;28;20063;-89
2021/08/12 11:42:26;;;;;;;6.03;4.30;;;30.50;98.20;;;;;;5077020;28;20082;-88
2021/08/12 11:44:53;;;;;;;8.07;4.50;;;30.50;98.50;;;;;;5076621;28;20529;-88
2021/08/12 11:47:20;;;;;;;8.27;4.07;;;30.50;98.40;;;;;;5076416;28;20503;-88
2021/08/12 11:49:50;;;;;;;5.82;4.03;;;30.70;96.90;;;;;;5077006;28;20048;-88
2021/08/12 11:52:24;;;;;;;7.03;4.00;;;30.40;96.90;;;;;;5076722;28;20044;-88
2021/08/12 11:55:07;;;;;;;5.60;3.83;;;30.10;97.90;;;;;;5076934;28;20028;-88
2021/08/12 11:57:43;;;;;;;6.40;3.88;;;30.30;97.00;;;;;;5077115;28;20032;-88
2021/08/12 12:00:13;;;;;;;9.00;3.90;;;30.70;96.00;;;;;;5095195;28;20024;-88
2021/08/12 12:03:00;;;;;;;9.27;4.60;;;31.50;94.80;;;;;;5094683;28;20020;-87
2021/08/12 12:05:30;;;;;;;5.88;4.07;;;31.90;94.30;;;;;;5076916;28;20073;-87
2021/08/12 12:08:05;;;;;;;6.88;4.15;;;32.30;94.00;;;;;;5076731;28;20052;-88
2021/08/12 12:10:37;;;;;;;5.68;4.13;;;32.40;93.30;;;;;;5077429;28;20031;-88
2021/08/12 12:13:20;;;;;;;6.70;4.18;;;33.00;93.10;;;;;;5095002;28;20522;-88
2021/08/12 12:15:48;;;;;;;6.05;4.10;;;33.10;91.80;;;;;;5076704;28;20016;-88
2021/08/12 12:18:28;;;;;;;8.90;4.03;;;33.30;91.50;;;;;;5076181;28;20024;-88
2021/08/12 12:21:05;;;;;;;6.30;4.00;;;33.50;91.60;;;;;;5076434;28;20052;-87
2021/08/12 12:23:31;;;;;;;5.47;4.25;;;33.10;90.60;;;;;;5077793;28;20084;-88
2021/08/12 12:25:57;;;;;;;5.65;3.90;;;33.40;90.30;;;;;;5080450;28;20548;-87
2021/08/12 12:28:23;;;;;;;6.40;4.13;;;33.00;90.00;;;;;;5080307;28;20020;-89
2021/08/12 12:30:48;;;;;;;7.70;4.22;;;33.20;88.50;;;;;;5079955;28;20024;-88
2021/08/12 12:33:19;;;;;;;5.80;3.75;;;33.10;87.60;;;;;;5080985;28;20349;-90
2021/08/12 12:35:47;;;;;;;7.47;4.35;;;33.80;88.30;;;;;;5080626;28;20620;-87
2021/08/12 12:38:18;;;;;;;6.15;4.07;;;34.40;86.50;;;;;;5080265;28;20031;-86
2021/08/12 12:40:44;;;;;;;4.90;3.95;;;34.30;86.20;;;;;;5080191;28;20024;-88
2021/08/12 12:43:10;;;;;;;9.40;3.60;;;34.80;85.20;;;;;;5079818;28;20111;-88
2021/08/12 12:46:02;;;;;;;6.63;4.10;;;34.80;83.20;;;;;;5079996;28;20050;-86
2021/08/12 12:48:31;;;;;;;7.57;3.85;;;34.70;82.50;;;;;;5075798;28;20024;-87
2021/08/12 12:50:58;;;;;;;6.72;3.53;;;35.00;84.00;;;;;;5079991;28;20135;-87